Monday, December 18, 2017, 12:50 PM GMT
Back to Local

CYVO, Val D'Or, Que.

Location: , , Canada Lat: 48.067
Local Time: 12:50 PM GMT (12:50 GMT) Lon: -77.783
Time Zone: GMT Elev: 1105 ft

Show me the last for .
Show Coded

Time T Td Feel RH Dir Speed Gust Alt SLP Vis Weather Sky Remarks
2017-12-18 12:00 7 3 -7 84 180° 9 - 29.89 30.00 15 OVC020 None
2017-12-18 11:00 7 1 -7 77 190° 9 - 29.91 30.02 15 OVC012 None
2017-12-18 10:00 5 1 -8 84 180° 8 - 29.92 30.03 9 OVC012 None
2017-12-18 09:03 5 0 -10 77 180° 10 - 29.93 30.04 9 BKN020 OVC075 None
2017-12-18 09:00 5 0 -10 77 180° 10 - 29.93 30.04 9 SCT020 OVC075 None
2017-12-18 08:00 3 0 -12 84 190° 10 - 29.96 30.07 9 OVC095 None
2017-12-18 07:00 3 -2 -11 77 190° 9 - 29.98 30.10 9 OVC100 None
2017-12-18 06:00 1 -2 -12 84 190° 8 - 30.01 30.12 9 BKN100 OVC120 None
2017-12-18 05:00 0 -4 -13 84 190° 7 - 30.03 30.15 9 OVC120 None
2017-12-18 04:00 0 -4 -13 84 170° 7 - 30.04 30.16 9 OVC130 None
2017-12-18 03:00 0 -4 -15 84 190° 8 - 30.06 30.19 15 BKN130 None
2017-12-18 02:00 -2 -6 -14 84 180° 6 - 30.08 30.22 15 OVC130 None
2017-12-18 01:00 -2 -6 -12 84 180° 5 - 30.10 30.24 15 BKN150 None
2017-12-18 00:00 -2 -6 -16 84 180° 7 - 30.12 30.26 15 OVC150 None
2017-12-17 23:00 -2 -8 -17 77 170° 8 - 30.13 30.27 15 OVC150 None
2017-12-17 22:00 -4 -8 -15 83 180° 5 - 30.17 30.30 15 BKN250 None
2017-12-17 21:00 -2 -6 -12 84 160° 5 - 30.18 30.32 15 FEW120 BKN280 None
2017-12-17 20:00 1 -6 -6 70 200° 3 - 30.18 30.32 15 FEW120 BKN280 None
2017-12-17 19:00 1 -6 -8 70 210° 5 - 30.20 30.33 15 FEW017 FEW120 BKN280 None
2017-12-17 18:00 0 -8 -10 70 180° 5 - 30.22 30.35 15 FEW024 FEW260 None
2017-12-17 17:00 -2 -8 -14 77 200° 6 - 30.25 30.38 15 FEW022 FEW260 None
2017-12-17 16:00 -8 -11 -19 83 160° 5 - 30.28 30.41 15 FEW250 None
2017-12-17 15:00 -15 -18 -27 83 160° 5 - 30.28 30.42 15 FEW260 None
2017-12-17 14:00 -20 -26 - 75 190° 2 - 30.26 30.41 15 FEW250 None
2017-12-17 13:00 -26 -31 - 74 - Calm - 30.25 30.40 15 CLR None

Support USWX by starting your Amazon purchase here.